createdAt,value
2023-08-03T00:01:59.847Z,44.56
2023-08-03T00:04:26.519Z,44.69
2023-08-03T00:06:53.175Z,44.16
2023-08-03T00:09:19.745Z,44.79
2023-08-03T00:11:46.346Z,44.69
2023-08-03T00:14:12.888Z,44.89
2023-08-03T00:16:39.479Z,44.96
2023-08-03T00:19:06.002Z,44.80
2023-08-03T00:21:32.714Z,44.78
2023-08-03T00:23:59.341Z,44.19
2023-08-03T00:26:25.956Z,44.16
2023-08-03T00:28:52.621Z,44.31
2023-08-03T00:31:19.291Z,43.94
2023-08-03T00:33:45.824Z,44.52
2023-08-03T00:36:12.463Z,44.23
2023-08-03T00:38:39.035Z,44.23
2023-08-03T00:41:05.660Z,44.01
2023-08-03T00:43:32.244Z,44.17
2023-08-03T00:45:58.917Z,44.29
2023-08-03T00:48:25.449Z,44.12
2023-08-03T00:50:51.956Z,43.98
2023-08-03T00:53:18.562Z,43.94
2023-08-03T00:55:45.236Z,43.33
2023-08-03T00:58:11.876Z,43.73
2023-08-03T01:00:38.501Z,43.52
2023-08-03T01:03:05.248Z,43.67
2023-08-03T01:05:31.898Z,43.36
2023-08-03T01:07:58.478Z,43.58
2023-08-03T01:10:25.005Z,43.63
2023-08-03T01:12:51.556Z,43.60
2023-08-03T01:15:18.113Z,43.79
2023-08-03T01:17:44.761Z,43.86
2023-08-03T01:20:11.395Z,43.44
2023-08-03T01:22:37.934Z,43.14
2023-08-03T01:25:04.543Z,43.23
2023-08-03T01:27:31.156Z,42.93
2023-08-03T01:29:57.759Z,42.89
2023-08-03T01:32:24.354Z,43.10
2023-08-03T01:34:51.021Z,43.12
2023-08-03T01:37:17.643Z,42.78
2023-08-03T01:39:44.210Z,42.70
2023-08-03T01:42:13.553Z,42.38
2023-08-03T01:44:40.065Z,43.02
2023-08-03T01:47:06.605Z,42.70
2023-08-03T01:49:33.306Z,41.46
2023-08-03T01:51:59.921Z,42.75
2023-08-03T01:54:26.544Z,42.69
2023-08-03T01:56:53.099Z,42.99
2023-08-03T01:59:19.659Z,42.56
2023-08-03T02:01:46.598Z,42.33
2023-08-03T02:04:13.491Z,42.27
2023-08-03T02:06:40.029Z,42.38
2023-08-03T02:09:06.681Z,41.79
2023-08-03T02:11:33.258Z,42.22
2023-08-03T02:13:59.765Z,42.43
2023-08-03T02:16:26.441Z,42.39
2023-08-03T02:18:53.343Z,41.65
2023-08-03T02:21:20.015Z,42.21
2023-08-03T02:23:46.551Z,42.22
2023-08-03T02:26:13.115Z,42.34
2023-08-03T02:28:39.665Z,41.16
2023-08-03T02:31:06.258Z,42.10
2023-08-03T02:33:32.919Z,42.55
2023-08-03T02:35:59.461Z,42.73
2023-08-03T02:38:26.118Z,42.39
2023-08-03T02:40:52.676Z,42.02
2023-08-03T02:43:19.295Z,42.26
2023-08-03T02:45:45.836Z,42.14
2023-08-03T02:48:12.388Z,41.99
2023-08-03T02:50:39.005Z,42.28
2023-08-03T02:53:05.538Z,42.19
2023-08-03T02:55:32.118Z,41.93
2023-08-03T02:57:58.723Z,42.06
2023-08-03T03:00:25.344Z,41.53
2023-08-03T03:02:51.974Z,41.56
2023-08-03T03:05:18.657Z,41.48
2023-08-03T03:07:45.379Z,41.40
2023-08-03T03:10:11.893Z,41.54
2023-08-03T03:12:38.550Z,41.31
2023-08-03T03:15:05.135Z,41.28
2023-08-03T03:17:31.708Z,41.39
2023-08-03T03:19:58.274Z,40.80
2023-08-03T03:22:24.900Z,40.88
2023-08-03T03:24:51.489Z,41.42
2023-08-03T03:27:18.023Z,40.98
2023-08-03T03:29:44.610Z,41.55
2023-08-03T03:32:11.172Z,41.97
2023-08-03T03:34:37.717Z,41.59
2023-08-03T03:37:04.306Z,41.29
2023-08-03T03:39:30.907Z,40.85
2023-08-03T03:41:57.398Z,41.42
2023-08-03T03:44:23.964Z,41.17
2023-08-03T03:46:50.581Z,41.24
2023-08-03T03:49:17.149Z,41.45
2023-08-03T03:51:43.928Z,40.96
2023-08-03T03:54:10.650Z,41.31
2023-08-03T03:56:37.302Z,41.09
2023-08-03T03:59:03.876Z,41.66
2023-08-03T04:01:30.538Z,41.33
2023-08-03T04:03:57.281Z,41.52
2023-08-03T04:06:23.914Z,41.48
2023-08-03T04:08:50.524Z,41.32
2023-08-03T04:11:17.150Z,41.82
2023-08-03T04:13:43.693Z,41.28
2023-08-03T04:16:10.329Z,41.43
2023-08-03T04:18:36.877Z,41.68
2023-08-03T04:21:03.474Z,41.55
2023-08-03T04:23:30.007Z,41.60
2023-08-03T04:25:56.600Z,41.44
2023-08-03T04:28:23.265Z,41.83
2023-08-03T04:30:49.833Z,41.43
2023-08-03T04:33:21.092Z,41.69
2023-08-03T04:35:47.614Z,41.76
2023-08-03T04:38:14.136Z,41.56
2023-08-03T04:40:40.735Z,41.13
2023-08-03T04:43:07.454Z,40.95
2023-08-03T04:45:34.025Z,41.04
2023-08-03T04:48:00.589Z,40.68
2023-08-03T04:50:27.305Z,40.87
2023-08-03T04:52:53.863Z,40.93
2023-08-03T04:55:23.388Z,41.01
2023-08-03T04:57:49.972Z,41.16
2023-08-03T05:00:16.540Z,41.45
2023-08-03T05:02:43.169Z,41.21
2023-08-03T05:05:09.832Z,41.91
2023-08-03T05:07:36.492Z,41.50
2023-08-03T05:10:03.037Z,41.46
2023-08-03T05:12:29.647Z,41.53
2023-08-03T05:14:56.253Z,42.06
2023-08-03T05:17:22.795Z,42.38
2023-08-03T05:19:49.405Z,41.57
2023-08-03T05:22:16.026Z,42.12
2023-08-03T05:24:45.461Z,41.52
2023-08-03T05:27:12.130Z,41.65
2023-08-03T05:29:38.732Z,41.76
2023-08-03T05:32:05.371Z,41.66
2023-08-03T05:34:32.025Z,41.51
2023-08-03T05:36:58.637Z,41.87
2023-08-03T05:39:25.147Z,41.54
2023-08-03T05:41:51.659Z,41.95
2023-08-03T05:44:18.185Z,41.65
2023-08-03T05:46:44.782Z,40.99
2023-08-03T05:49:11.443Z,39.90
2023-08-03T05:51:37.997Z,39.55
2023-08-03T05:54:04.609Z,39.59
2023-08-03T05:56:31.166Z,40.13
2023-08-03T05:58:57.850Z,39.94
2023-08-03T06:01:24.574Z,39.55
2023-08-03T06:03:51.206Z,39.65
2023-08-03T06:06:17.836Z,39.92
2023-08-03T06:08:44.461Z,39.63
2023-08-03T06:11:10.966Z,39.58
2023-08-03T06:13:37.585Z,39.62
2023-08-03T06:16:04.335Z,39.77
2023-08-03T06:18:30.934Z,39.98
2023-08-03T06:20:57.531Z,40.04
2023-08-03T06:23:24.087Z,40.21
2023-08-03T06:25:50.592Z,40.18
2023-08-03T06:28:17.178Z,40.57
2023-08-03T06:30:43.764Z,40.56
2023-08-03T06:33:10.379Z,40.34
2023-08-03T06:35:37.039Z,40.28
2023-08-03T06:38:03.596Z,40.29
2023-08-03T06:40:30.156Z,40.20
2023-08-03T06:42:56.798Z,40.19
2023-08-03T06:45:23.415Z,40.59
2023-08-03T06:47:49.973Z,40.36
2023-08-03T06:50:16.831Z,40.39
2023-08-03T06:52:43.416Z,40.23
2023-08-03T06:55:09.963Z,40.32
2023-08-03T06:57:36.521Z,40.35
2023-08-03T07:00:03.113Z,40.05
2023-08-03T07:02:29.751Z,40.30
2023-08-03T07:04:56.320Z,40.67
2023-08-03T07:07:22.850Z,40.59
2023-08-03T07:09:49.579Z,40.38
2023-08-03T07:12:16.326Z,40.81
2023-08-03T07:14:42.879Z,40.13
2023-08-03T07:17:09.568Z,40.32
2023-08-03T07:19:36.150Z,40.28
2023-08-03T07:22:02.732Z,40.04
2023-08-03T07:24:29.252Z,40.65
2023-08-03T07:26:55.977Z,40.41
2023-08-03T07:29:22.501Z,40.49
2023-08-03T07:31:49.222Z,39.76
2023-08-03T07:34:15.929Z,40.05
2023-08-03T07:36:42.484Z,40.13
2023-08-03T07:39:09.070Z,40.14
2023-08-03T07:41:35.713Z,40.35
2023-08-03T07:44:02.356Z,39.84
2023-08-03T07:46:28.961Z,40.39
2023-08-03T07:48:55.532Z,40.38
2023-08-03T07:51:23.140Z,39.93
2023-08-03T07:53:51.162Z,39.79
2023-08-03T07:56:17.747Z,39.81
2023-08-03T07:58:44.357Z,40.13
2023-08-03T08:01:11.193Z,39.77
2023-08-03T08:03:37.872Z,39.84
2023-08-03T08:06:04.472Z,40.10
2023-08-03T08:08:31.042Z,39.84
2023-08-03T08:11:06.981Z,40.11
2023-08-03T08:13:39.452Z,39.82
2023-08-03T08:16:06.173Z,39.93
2023-08-03T08:18:32.911Z,39.67
2023-08-03T08:20:59.514Z,39.75
2023-08-03T08:23:26.110Z,39.60
2023-08-03T08:25:52.887Z,39.72
2023-08-03T08:28:19.675Z,39.68
2023-08-03T08:30:46.313Z,39.69
2023-08-03T08:33:13.024Z,39.42
2023-08-03T08:35:42.648Z,39.87
2023-08-03T08:38:09.247Z,39.74
2023-08-03T08:40:35.838Z,39.73
2023-08-03T08:43:02.476Z,39.90
2023-08-03T08:45:29.105Z,39.51
2023-08-03T08:48:49.692Z,39.19
2023-08-03T09:00:39.970Z,39.20
2023-08-03T09:03:06.660Z,38.93
2023-08-03T09:08:02.874Z,38.91
2023-08-03T09:10:29.434Z,38.78
2023-08-03T09:12:56.002Z,38.83
2023-08-03T09:15:22.619Z,38.67
2023-08-03T09:17:49.247Z,38.70
2023-08-03T09:25:21.131Z,39.49
2023-08-03T09:30:24.161Z,39.09
2023-08-03T09:32:51.817Z,38.65
2023-08-03T09:35:18.673Z,39.01
2023-08-03T09:37:45.943Z,39.30
2023-08-03T09:40:13.035Z,39.07
2023-08-03T09:42:39.646Z,38.63
2023-08-03T09:47:50.061Z,38.53
2023-08-03T09:50:16.769Z,39.53
2023-08-03T09:55:12.867Z,38.73
2023-08-03T09:57:39.448Z,38.76
2023-08-03T10:00:06.063Z,38.21
2023-08-03T10:02:32.673Z,38.75
2023-08-03T10:04:59.231Z,38.39
2023-08-03T10:07:25.783Z,38.69
2023-08-03T10:09:52.453Z,38.70
2023-08-03T10:12:19.093Z,38.81
2023-08-03T10:14:45.671Z,38.43
2023-08-03T10:17:12.274Z,38.60
2023-08-03T10:19:39.012Z,38.34
2023-08-03T10:22:05.762Z,38.67
2023-08-03T10:24:32.386Z,37.93
2023-08-03T10:26:59.545Z,37.68
2023-08-03T10:29:27.642Z,37.41
2023-08-03T10:31:54.354Z,38.15
2023-08-03T10:34:21.064Z,38.05
2023-08-03T10:36:47.936Z,37.98
2023-08-03T10:39:14.782Z,37.72
2023-08-03T10:41:41.465Z,37.28
2023-08-03T10:44:08.065Z,37.36
2023-08-03T10:46:34.770Z,37.03
2023-08-03T10:49:01.698Z,37.40
2023-08-03T10:51:28.357Z,37.32
2023-08-03T10:53:54.968Z,37.27
2023-08-03T10:56:21.532Z,37.51
2023-08-03T10:58:48.161Z,37.21
2023-08-03T11:01:14.790Z,37.56
2023-08-03T11:03:41.513Z,37.29
2023-08-03T11:06:08.152Z,36.68
2023-08-03T11:08:34.690Z,35.91
2023-08-03T11:11:01.244Z,36.13
2023-08-03T11:13:27.875Z,35.69
2023-08-03T11:15:54.572Z,36.21
2023-08-03T11:18:21.149Z,36.06
2023-08-03T11:20:47.827Z,36.15
2023-08-03T11:23:14.482Z,35.98
2023-08-03T11:25:41.122Z,35.63
2023-08-03T11:28:07.673Z,35.72
2023-08-03T11:30:34.197Z,35.83
2023-08-03T11:33:00.854Z,35.48
2023-08-03T11:35:27.480Z,35.77
2023-08-03T11:37:54.093Z,36.62
2023-08-03T11:40:20.729Z,36.69
2023-08-03T11:42:47.432Z,36.34
2023-08-03T11:45:13.993Z,35.47
2023-08-03T11:47:42.990Z,35.82
2023-08-03T11:50:10.773Z,35.66
2023-08-03T11:52:37.340Z,36.34
2023-08-03T11:55:04.038Z,35.55
2023-08-03T11:57:30.727Z,35.97
2023-08-03T11:59:58.025Z,36.40
2023-08-03T12:02:24.776Z,36.14
2023-08-03T12:04:51.541Z,35.73
2023-08-03T12:07:20.692Z,35.28
2023-08-03T12:09:47.360Z,35.89
2023-08-03T12:12:13.912Z,35.37
2023-08-03T12:14:40.624Z,35.68
2023-08-03T12:17:07.293Z,35.10
2023-08-03T12:19:34.048Z,35.10
2023-08-03T12:22:03.559Z,35.42
2023-08-03T12:24:30.716Z,34.75
2023-08-03T12:27:04.449Z,35.45
2023-08-03T12:29:41.337Z,35.45
2023-08-03T12:32:08.497Z,34.92
2023-08-03T12:34:35.058Z,34.61
2023-08-03T12:37:01.617Z,35.23
2023-08-03T12:39:28.263Z,35.75
2023-08-03T12:41:57.990Z,35.01
2023-08-03T12:44:26.627Z,35.74
2023-08-03T12:46:53.279Z,35.27
2023-08-03T12:49:19.894Z,35.27
2023-08-03T12:51:46.470Z,35.27
2023-08-03T12:54:13.043Z,34.86
2023-08-03T12:56:39.748Z,34.77
2023-08-03T12:59:06.424Z,35.01
2023-08-03T13:01:33.219Z,35.08
2023-08-03T13:03:59.897Z,34.62
2023-08-03T13:06:26.514Z,35.14
2023-08-03T13:08:53.144Z,34.85
2023-08-03T13:11:19.715Z,34.25
2023-08-03T13:13:46.425Z,34.23
2023-08-03T13:16:13.172Z,34.34
2023-08-03T13:18:39.936Z,34.64
2023-08-03T13:21:06.545Z,34.54
2023-08-03T13:23:33.105Z,34.69
2023-08-03T13:25:59.777Z,34.62
2023-08-03T13:28:26.441Z,34.74
2023-08-03T13:30:53.050Z,34.32
2023-08-03T13:33:19.721Z,35.07
2023-08-03T13:35:46.349Z,34.82
2023-08-03T13:38:12.892Z,35.16
2023-08-03T13:40:42.256Z,34.69
2023-08-03T13:43:08.785Z,35.37
2023-08-03T13:45:35.375Z,34.99
2023-08-03T13:48:02.154Z,34.59
2023-08-03T13:50:28.872Z,34.87
2023-08-03T13:52:55.554Z,34.44
2023-08-03T13:55:22.147Z,35.30
2023-08-03T13:58:04.921Z,34.93
2023-08-03T14:00:46.369Z,34.02
2023-08-03T14:03:14.317Z,33.58
2023-08-03T14:08:10.683Z,34.16
2023-08-03T14:10:37.450Z,34.33
2023-08-03T14:13:04.092Z,34.45
2023-08-03T14:23:21.373Z,34.48
2023-08-03T14:25:48.254Z,34.78
2023-08-03T14:30:44.412Z,34.45
2023-08-03T14:33:11.335Z,34.11
2023-08-03T14:35:38.024Z,34.42
2023-08-03T14:38:04.635Z,34.49
2023-08-03T14:40:31.242Z,34.54
2023-08-03T14:42:57.930Z,33.54
2023-08-03T14:45:28.573Z,33.99
2023-08-03T14:47:58.618Z,33.83
2023-08-03T14:50:26.023Z,33.55
2023-08-03T14:52:52.612Z,33.64
2023-08-03T14:55:19.271Z,33.60
2023-08-03T14:57:45.833Z,33.22
2023-08-03T15:02:38.724Z,33.60
2023-08-03T15:05:05.497Z,33.24
2023-08-03T15:07:32.138Z,33.62
2023-08-03T15:09:58.690Z,33.82
2023-08-03T15:12:25.406Z,33.36
2023-08-03T15:14:52.139Z,32.87
2023-08-03T15:17:25.904Z,32.08
2023-08-03T15:19:59.642Z,32.26
2023-08-03T15:22:26.900Z,32.49
2023-08-03T15:24:54.749Z,32.30
2023-08-03T15:27:24.779Z,32.40
2023-08-03T15:29:54.618Z,32.21
2023-08-03T15:34:53.581Z,31.71
2023-08-03T15:37:21.922Z,31.75
2023-08-03T15:39:50.119Z,32.13
2023-08-03T15:42:21.370Z,32.48
2023-08-03T15:44:52.191Z,33.07
2023-08-03T15:47:43.324Z,32.77
2023-08-03T15:50:07.234Z,32.50
2023-08-03T15:52:52.517Z,32.26
2023-08-03T15:57:53.935Z,31.96
2023-08-03T16:00:20.832Z,31.64
2023-08-03T16:02:47.453Z,31.66
2023-08-03T16:05:14.158Z,31.28
2023-08-03T16:07:40.774Z,31.28
2023-08-03T16:10:07.390Z,31.57
2023-08-03T16:12:34.043Z,31.49
2023-08-03T16:15:00.705Z,31.87
2023-08-03T16:17:27.215Z,31.66
2023-08-03T16:19:53.841Z,31.77
2023-08-03T16:22:20.476Z,31.68
2023-08-03T16:24:47.152Z,31.76
2023-08-03T16:27:13.847Z,31.02
2023-08-03T16:29:44.993Z,31.37
2023-08-03T16:32:16.699Z,31.71
2023-08-03T16:37:12.878Z,32.19
2023-08-03T16:39:39.477Z,31.98
2023-08-03T16:42:06.163Z,31.54
2023-08-03T16:44:32.735Z,31.59
2023-08-03T16:46:59.318Z,32.23
2023-08-03T16:49:25.995Z,32.60
2023-08-03T16:51:52.601Z,32.47
2023-08-03T16:54:19.249Z,32.82
2023-08-03T16:56:46.246Z,33.38
2023-08-03T16:59:12.945Z,33.35
2023-08-03T17:01:39.540Z,33.55
2023-08-03T17:04:06.209Z,32.53
2023-08-03T17:06:34.636Z,33.87
2023-08-03T17:09:02.895Z,33.49
2023-08-03T17:11:29.446Z,34.21
2023-08-03T17:13:56.061Z,33.55
2023-08-03T17:16:22.718Z,34.57
2023-08-03T17:18:49.390Z,34.98
2023-08-03T17:21:15.968Z,34.24
2023-08-03T17:23:42.542Z,34.41
2023-08-03T17:26:09.201Z,34.81
2023-08-03T17:28:35.863Z,35.09
2023-08-03T17:31:02.705Z,35.10
2023-08-03T17:33:29.531Z,35.08
2023-08-03T17:35:56.150Z,35.05
2023-08-03T17:38:22.798Z,35.38
2023-08-03T17:40:49.463Z,34.83
2023-08-03T17:43:16.115Z,34.31
2023-08-03T17:45:42.811Z,34.97
2023-08-03T17:48:09.474Z,34.43
2023-08-03T17:50:36.022Z,35.43
2023-08-03T17:53:02.566Z,35.30
2023-08-03T17:55:29.112Z,35.05
2023-08-03T17:57:55.743Z,35.08
2023-08-03T18:00:22.369Z,35.55
2023-08-03T18:02:49.087Z,35.26
2023-08-03T18:05:15.698Z,35.25
2023-08-03T18:07:42.260Z,35.19
2023-08-03T18:10:08.873Z,35.35
2023-08-03T18:12:35.525Z,35.77
2023-08-03T18:15:02.127Z,35.81
2023-08-03T18:17:28.884Z,36.21
2023-08-03T18:19:55.594Z,35.91
2023-08-03T18:22:22.149Z,35.78
2023-08-03T18:24:48.781Z,36.03
2023-08-03T18:27:15.419Z,36.00
2023-08-03T18:29:41.981Z,35.24
2023-08-03T18:32:08.582Z,35.42
2023-08-03T18:34:35.232Z,35.80
2023-08-03T18:37:01.830Z,35.56
2023-08-03T18:39:28.579Z,35.49
2023-08-03T18:41:55.202Z,35.52
2023-08-03T18:44:21.767Z,35.81
2023-08-03T18:46:48.488Z,35.90
2023-08-03T18:49:15.253Z,35.57
2023-08-03T18:51:41.796Z,35.66
2023-08-03T18:54:08.327Z,35.95
2023-08-03T18:56:34.926Z,35.78
2023-08-03T18:59:01.578Z,35.81
2023-08-03T19:01:28.157Z,36.02
2023-08-03T19:03:54.827Z,35.75
2023-08-03T19:06:22.136Z,35.88
2023-08-03T19:08:48.705Z,35.35
2023-08-03T19:11:15.271Z,34.50
2023-08-03T19:13:41.954Z,34.95
2023-08-03T19:16:08.575Z,34.95
2023-08-03T19:18:35.230Z,35.63
2023-08-03T19:21:01.755Z,35.49
2023-08-03T19:23:28.334Z,36.20
2023-08-03T19:25:55.682Z,35.78
2023-08-03T19:28:23.479Z,35.94
2023-08-03T19:30:50.846Z,36.18
2023-08-03T19:33:17.523Z,35.72
2023-08-03T19:35:44.615Z,35.64
2023-08-03T19:38:12.351Z,35.89
2023-08-03T19:40:40.568Z,35.99
2023-08-03T19:43:07.097Z,35.88
2023-08-03T19:45:33.633Z,36.00
2023-08-03T19:48:01.044Z,36.25
2023-08-03T19:50:29.312Z,35.97
2023-08-03T20:08:13.516Z,36.36
2023-08-03T20:10:43.033Z,37.27
2023-08-03T20:13:11.648Z,36.66
2023-08-03T20:20:37.589Z,36.69
2023-08-03T20:23:04.224Z,36.99
2023-08-03T20:25:30.890Z,37.02
2023-08-03T20:27:57.465Z,36.41
2023-08-03T20:30:24.850Z,37.06
2023-08-03T20:32:51.531Z,36.92
2023-08-03T20:48:36.318Z,37.23
2023-08-03T20:53:17.851Z,36.92
2023-08-03T20:55:44.792Z,36.58
2023-08-03T20:58:11.412Z,36.98
2023-08-03T21:00:37.978Z,36.88
2023-08-03T21:03:06.028Z,37.08
2023-08-03T21:05:36.873Z,36.84
2023-08-03T21:08:10.155Z,36.97
2023-08-03T21:13:06.174Z,36.90
2023-08-03T21:15:34.524Z,36.88
2023-08-03T21:18:01.329Z,37.17
2023-08-03T21:20:28.024Z,37.29
2023-08-03T21:22:54.636Z,37.17
2023-08-03T21:25:21.251Z,37.14
2023-08-03T21:27:47.916Z,37.51
2023-08-03T21:30:14.641Z,37.40
2023-08-03T21:32:41.370Z,36.96
2023-08-03T21:35:08.082Z,37.31
2023-08-03T21:37:34.747Z,37.25
2023-08-03T21:40:01.366Z,37.57
2023-08-03T21:42:27.960Z,37.20
2023-08-03T21:44:54.615Z,37.50
2023-08-03T21:47:21.225Z,37.67
2023-08-03T21:49:47.900Z,37.49
2023-08-03T21:52:14.488Z,37.22
2023-08-03T21:54:41.087Z,37.26
2023-08-03T21:57:07.663Z,37.73
2023-08-03T21:59:34.223Z,37.43
2023-08-03T22:02:00.879Z,37.30
2023-08-03T22:04:27.568Z,37.22
2023-08-03T22:06:54.223Z,37.32
2023-08-03T22:09:20.867Z,37.29
2023-08-03T22:11:47.787Z,37.73
2023-08-03T22:14:14.552Z,37.38
2023-08-03T22:16:41.179Z,37.63
2023-08-03T22:19:08.257Z,37.70
2023-08-03T22:21:34.975Z,37.59
2023-08-03T22:24:01.668Z,37.46
2023-08-03T22:26:28.293Z,37.50
2023-08-03T22:28:54.876Z,37.50
2023-08-03T22:31:21.545Z,37.38
2023-08-03T22:33:48.165Z,37.38
2023-08-03T22:36:14.891Z,37.55
2023-08-03T22:38:41.551Z,37.56
2023-08-03T22:41:08.223Z,37.65
2023-08-03T22:43:34.829Z,37.38
2023-08-03T22:46:01.449Z,37.43
2023-08-03T22:48:28.292Z,37.75
2023-08-03T22:50:54.947Z,37.74
2023-08-03T22:53:21.565Z,37.80
2023-08-03T22:55:48.180Z,37.87
2023-08-03T22:58:14.778Z,37.98
2023-08-03T23:00:41.446Z,38.03
2023-08-03T23:03:08.136Z,38.06
2023-08-03T23:05:34.800Z,37.86
2023-08-03T23:08:01.417Z,37.89
2023-08-03T23:10:28.031Z,38.23
2023-08-03T23:12:54.543Z,38.13
2023-08-03T23:15:21.138Z,38.01
2023-08-03T23:17:47.750Z,38.39
2023-08-03T23:20:14.439Z,38.27
2023-08-03T23:22:41.057Z,38.38
2023-08-03T23:25:07.642Z,38.39
2023-08-03T23:27:34.272Z,38.40
2023-08-03T23:30:00.910Z,38.39
2023-08-03T23:32:27.539Z,38.56
2023-08-03T23:34:54.182Z,38.47
2023-08-03T23:37:20.779Z,38.44
2023-08-03T23:39:47.384Z,38.71
2023-08-03T23:42:13.968Z,38.29
2023-08-03T23:44:40.659Z,38.85
2023-08-03T23:47:07.380Z,38.91
2023-08-03T23:49:33.978Z,38.42
2023-08-03T23:52:00.549Z,38.50
2023-08-03T23:54:30.182Z,38.21
2023-08-03T23:56:56.722Z,38.43
2023-08-03T23:59:23.228Z,38.73
